createdAt,value
2017-09-22T00:01:05.034Z,10.73
2017-09-22T00:03:33.431Z,13.97
2017-09-22T00:06:01.831Z,12.13
2017-09-22T00:08:30.855Z,12.70
2017-09-22T00:10:59.234Z,14.00
2017-09-22T00:13:28.327Z,12.93
2017-09-22T00:15:56.587Z,11.57
2017-09-22T00:18:25.598Z,11.63
2017-09-22T00:20:53.874Z,13.87
2017-09-22T00:23:22.131Z,18.80
2017-09-22T00:25:51.142Z,13.73
2017-09-22T00:28:19.430Z,10.30
2017-09-22T00:30:47.679Z,10.10
2017-09-22T00:33:16.694Z,11.90
2017-09-22T00:35:45.554Z,9.57
2017-09-22T00:38:13.811Z,14.93
2017-09-22T00:40:42.058Z,11.00
2017-09-22T00:43:10.335Z,12.67
2017-09-22T00:45:38.590Z,10.17
2017-09-22T00:48:06.903Z,13.67
2017-09-22T00:50:35.150Z,11.90
2017-09-22T00:53:03.400Z,10.00
2017-09-22T00:55:32.458Z,13.00
2017-09-22T00:58:01.223Z,10.03
2017-09-22T01:00:29.514Z,10.37
2017-09-22T01:02:57.742Z,12.43
2017-09-22T01:05:26.018Z,10.70
2017-09-22T01:07:54.270Z,9.33
2017-09-22T01:10:22.517Z,12.27
2017-09-22T01:12:51.170Z,12.53
2017-09-22T01:15:19.418Z,10.30
2017-09-22T01:17:47.692Z,11.37
2017-09-22T01:20:16.003Z,11.77
2017-09-22T01:22:44.254Z,10.70
2017-09-22T01:25:13.886Z,15.93
2017-09-22T01:27:42.162Z,14.80
2017-09-22T01:30:10.410Z,13.93
2017-09-22T01:32:39.430Z,13.17
2017-09-22T01:35:07.710Z,11.27
2017-09-22T01:37:36.135Z,11.00
2017-09-22T01:40:04.378Z,10.73
2017-09-22T01:42:32.823Z,13.50
2017-09-22T01:45:01.838Z,15.40
2017-09-22T01:47:31.030Z,15.17
2017-09-22T01:49:59.310Z,14.47
2017-09-22T01:52:27.566Z,14.73
2017-09-22T01:54:56.586Z,13.00
2017-09-22T01:57:24.863Z,13.13
2017-09-22T01:59:53.422Z,16.60
2017-09-22T02:02:22.443Z,16.23
2017-09-22T02:04:51.075Z,20.00
2017-09-22T02:07:19.334Z,19.80
2017-09-22T02:09:47.587Z,21.40
2017-09-22T02:12:15.866Z,21.50
2017-09-22T02:14:44.282Z,26.83
2017-09-22T02:17:12.540Z,33.93
2017-09-22T02:19:40.814Z,25.67
2017-09-22T02:22:09.113Z,32.50
2017-09-22T02:24:37.375Z,27.43
2017-09-22T02:27:05.953Z,56.60
2017-09-22T02:29:34.203Z,64.63
2017-09-22T02:32:02.631Z,48.17
2017-09-22T02:34:30.910Z,70.90
2017-09-22T02:36:59.158Z,96.20
2017-09-22T02:39:27.414Z,41.17
2017-09-22T02:41:55.690Z,38.07
2017-09-22T02:44:23.942Z,68.33
2017-09-22T02:46:52.958Z,69.37
2017-09-22T02:49:21.289Z,31.00
2017-09-22T02:51:49.539Z,31.40
2017-09-22T02:54:17.792Z,22.60
2017-09-22T02:56:46.503Z,21.70
2017-09-22T02:59:14.742Z,16.50
2017-09-22T03:01:43.411Z,20.80
2017-09-22T03:04:11.677Z,10.50
2017-09-22T03:06:39.928Z,10.13
2017-09-22T03:09:08.172Z,13.23
2017-09-22T03:11:36.694Z,10.20
2017-09-22T03:14:04.947Z,11.87
2017-09-22T03:16:33.203Z,14.83
2017-09-22T03:19:01.482Z,10.60
2017-09-22T03:21:29.737Z,16.53
2017-09-22T03:23:58.751Z,10.70
2017-09-22T03:26:27.027Z,14.97
2017-09-22T03:28:55.345Z,19.30
2017-09-22T03:31:23.598Z,13.83
2017-09-22T03:33:52.034Z,11.07
2017-09-22T03:36:20.284Z,12.00
2017-09-22T03:38:48.540Z,12.27
2017-09-22T03:41:16.821Z,13.80
2017-09-22T03:43:45.063Z,9.90
2017-09-22T03:46:13.361Z,10.07
2017-09-22T03:48:41.630Z,10.83
2017-09-22T03:51:09.874Z,11.00
2017-09-22T03:53:38.877Z,9.57
2017-09-22T03:56:08.216Z,12.10
2017-09-22T03:58:36.452Z,8.90
2017-09-22T04:01:05.459Z,10.50
2017-09-22T04:03:33.938Z,16.93
2017-09-22T04:06:02.190Z,26.47
2017-09-22T04:08:30.486Z,15.40
2017-09-22T04:10:58.782Z,49.83
2017-09-22T04:13:27.034Z,41.23
2017-09-22T04:15:55.295Z,62.67
2017-09-22T04:18:23.902Z,44.60
2017-09-22T04:20:52.154Z,16.20
2017-09-22T04:23:20.414Z,43.63
2017-09-22T04:25:48.750Z,24.73
2017-09-22T04:28:17.003Z,37.20
2017-09-22T04:30:45.426Z,23.03
2017-09-22T04:33:13.686Z,14.13
2017-09-22T04:35:41.943Z,15.47
2017-09-22T04:38:10.198Z,17.77
2017-09-22T04:40:38.838Z,17.13
2017-09-22T04:43:07.097Z,17.50
2017-09-22T04:45:35.362Z,24.83
2017-09-22T04:48:03.638Z,24.60
2017-09-22T04:50:31.895Z,23.23
2017-09-22T04:53:00.917Z,20.30
2017-09-22T04:55:29.186Z,15.30
2017-09-22T04:57:57.451Z,26.10
2017-09-22T05:00:25.702Z,25.37
2017-09-22T05:02:54.449Z,19.60
2017-09-22T05:05:23.095Z,16.60
2017-09-22T05:07:51.609Z,17.40
2017-09-22T05:10:19.939Z,11.90
2017-09-22T05:12:48.955Z,16.77
2017-09-22T05:15:17.211Z,10.20
2017-09-22T05:20:20.841Z,12.90
2017-09-22T05:22:49.462Z,12.60
2017-09-22T05:25:18.135Z,16.40
2017-09-22T05:27:46.382Z,13.63
2017-09-22T05:30:14.671Z,11.63
2017-09-22T05:32:43.128Z,10.90
2017-09-22T05:35:11.480Z,15.10
2017-09-22T05:37:39.862Z,13.47
2017-09-22T05:40:08.099Z,15.10
2017-09-22T05:42:36.346Z,10.60
2017-09-22T05:45:05.807Z,9.40
2017-09-22T05:47:34.058Z,12.43
2017-09-22T05:50:02.315Z,16.83
2017-09-22T05:52:30.730Z,19.63
2017-09-22T05:54:58.981Z,22.03
2017-09-22T05:57:27.246Z,19.87
2017-09-22T05:59:56.289Z,20.73
2017-09-22T06:02:24.539Z,37.23
2017-09-22T06:04:52.797Z,29.27
2017-09-22T06:07:22.212Z,24.70
2017-09-22T06:09:50.490Z,27.00
2017-09-22T06:12:18.758Z,37.30
2017-09-22T06:14:47.034Z,49.40
2017-09-22T06:17:15.299Z,34.33
2017-09-22T06:19:44.345Z,35.00
2017-09-22T06:22:12.618Z,33.03
2017-09-22T06:24:40.862Z,39.53
2017-09-22T06:27:09.120Z,40.03
2017-09-22T06:29:38.458Z,35.70
2017-09-22T06:32:06.774Z,33.17
2017-09-22T06:34:35.027Z,34.53
2017-09-22T06:37:03.314Z,40.57
2017-09-22T06:39:31.562Z,35.13
2017-09-22T06:41:59.815Z,27.20
2017-09-22T06:44:28.090Z,30.50
2017-09-22T06:46:57.118Z,26.83
2017-09-22T06:49:25.363Z,40.67
2017-09-22T06:51:54.806Z,29.87
2017-09-22T06:54:23.063Z,29.53
2017-09-22T06:56:51.314Z,16.93
2017-09-22T06:59:19.595Z,16.73
2017-09-22T07:01:48.614Z,17.23
2017-09-22T07:04:16.938Z,15.50
2017-09-22T07:06:45.214Z,18.83
2017-09-22T07:09:13.722Z,18.33
2017-09-22T07:11:42.753Z,16.20
2017-09-22T07:14:11.356Z,23.03
2017-09-22T07:16:39.594Z,16.57
2017-09-22T07:19:07.847Z,18.17
2017-09-22T07:21:36.904Z,17.10
2017-09-22T07:24:05.155Z,23.10
2017-09-22T07:26:33.402Z,19.63
2017-09-22T07:29:01.686Z,17.20
2017-09-22T07:31:30.698Z,18.93
2017-09-22T07:33:58.967Z,15.17
2017-09-22T07:36:27.790Z,16.60
2017-09-22T07:38:56.042Z,15.70
2017-09-22T07:41:24.322Z,24.17
2017-09-22T07:43:52.598Z,19.17
2017-09-22T07:46:20.845Z,16.83
2017-09-22T07:48:50.826Z,16.30
2017-09-22T07:51:19.102Z,15.93
2017-09-22T07:53:47.358Z,16.90
2017-09-22T07:56:15.615Z,13.23
2017-09-22T07:58:44.120Z,14.53
2017-09-22T08:01:12.409Z,21.00
2017-09-22T08:03:40.642Z,19.13
2017-09-22T08:06:08.918Z,15.77
2017-09-22T08:08:37.191Z,14.40
2017-09-22T08:11:05.678Z,12.60
2017-09-22T08:13:33.966Z,14.00
2017-09-22T08:16:02.224Z,15.17
2017-09-22T08:18:30.681Z,12.87
2017-09-22T08:20:59.118Z,12.97
2017-09-22T08:23:27.378Z,11.30
2017-09-22T08:25:55.639Z,15.20
2017-09-22T08:28:23.922Z,12.03
2017-09-22T08:30:52.174Z,12.73
2017-09-22T08:33:20.430Z,19.43
2017-09-22T08:35:48.712Z,12.23
2017-09-22T08:38:16.966Z,17.80
2017-09-22T08:40:45.219Z,14.20
2017-09-22T08:43:13.769Z,13.50
2017-09-22T08:45:42.206Z,14.43
2017-09-22T08:48:10.451Z,17.60
2017-09-22T08:50:38.731Z,13.37
2017-09-22T08:53:06.982Z,14.63
2017-09-22T08:55:35.235Z,14.60
2017-09-22T08:58:03.537Z,16.47
2017-09-22T09:00:31.982Z,16.70
2017-09-22T09:03:00.234Z,21.87
2017-09-22T09:05:28.814Z,18.83
2017-09-22T09:07:57.123Z,20.43
2017-09-22T09:10:25.376Z,19.13
2017-09-22T09:12:53.934Z,20.83
2017-09-22T09:15:22.187Z,18.50
2017-09-22T09:17:51.205Z,29.30
2017-09-22T09:20:19.487Z,22.63
2017-09-22T09:22:47.743Z,21.30
2017-09-22T09:25:16.082Z,18.97
2017-09-22T09:27:44.541Z,20.87
2017-09-22T09:30:12.786Z,20.70
2017-09-22T09:32:41.038Z,22.50
2017-09-22T09:35:09.326Z,23.00
2017-09-22T09:37:38.347Z,23.53
2017-09-22T09:40:06.623Z,28.20
2017-09-22T09:42:35.079Z,20.20
2017-09-22T09:45:04.102Z,24.40
2017-09-22T09:47:32.362Z,22.53
2017-09-22T09:50:00.819Z,21.87
2017-09-22T09:52:29.845Z,22.80
2017-09-22T09:54:58.102Z,29.30
2017-09-22T09:57:26.378Z,24.97
2017-09-22T09:59:55.402Z,29.13
2017-09-22T10:02:23.655Z,36.03
2017-09-22T10:04:51.999Z,32.77
2017-09-22T10:07:20.288Z,29.90
2017-09-22T10:09:48.502Z,27.33
2017-09-22T10:12:17.822Z,33.17
2017-09-22T10:14:46.198Z,31.57
2017-09-22T10:17:14.463Z,31.23
2017-09-22T10:19:42.738Z,27.80
2017-09-22T10:22:10.995Z,35.90
2017-09-22T10:24:39.261Z,25.27
2017-09-22T10:27:08.307Z,27.80
2017-09-22T10:29:36.554Z,25.63
2017-09-22T10:32:04.818Z,29.40
2017-09-22T10:34:33.474Z,38.80
2017-09-22T10:37:01.734Z,26.83
2017-09-22T10:39:29.984Z,25.40
2017-09-22T10:41:58.260Z,29.07
2017-09-22T10:44:26.506Z,29.40
2017-09-22T10:46:54.759Z,28.63
2017-09-22T10:49:23.162Z,26.17
2017-09-22T10:51:52.175Z,23.33
2017-09-22T10:54:20.453Z,23.40
2017-09-22T10:56:48.945Z,24.83
2017-09-22T10:59:17.211Z,25.67
2017-09-22T11:01:45.479Z,24.10
2017-09-22T11:04:13.766Z,23.70
2017-09-22T11:06:42.061Z,21.77
2017-09-22T11:09:10.422Z,25.83
2017-09-22T11:11:38.710Z,26.43
2017-09-22T11:14:06.962Z,20.87
2017-09-22T11:16:35.393Z,20.67
2017-09-22T11:19:03.710Z,21.00
2017-09-22T11:21:32.726Z,27.23
2017-09-22T11:24:01.179Z,21.17
2017-09-22T11:26:29.452Z,24.63
2017-09-22T11:28:59.645Z,26.23
2017-09-22T11:31:27.409Z,18.90
2017-09-22T11:33:55.189Z,18.97
2017-09-22T11:36:23.446Z,28.80
2017-09-22T11:38:51.834Z,17.73
2017-09-22T11:41:20.209Z,21.07
2017-09-22T11:43:48.450Z,22.37
2017-09-22T11:46:16.771Z,16.67
2017-09-22T11:48:45.834Z,19.30
2017-09-22T11:51:14.190Z,20.37
2017-09-22T11:53:42.474Z,13.80
2017-09-22T11:56:10.746Z,14.60
2017-09-22T11:58:39.011Z,12.20
2017-09-22T12:01:07.278Z,14.63
2017-09-22T12:03:36.101Z,13.60
2017-09-22T12:06:04.366Z,13.00
2017-09-22T12:08:32.626Z,12.00
2017-09-22T12:11:00.921Z,13.00
2017-09-22T12:13:29.197Z,16.77
2017-09-22T12:15:57.477Z,14.57
2017-09-22T12:18:26.094Z,12.97
2017-09-22T12:20:55.311Z,16.80
2017-09-22T12:23:23.675Z,12.90
2017-09-22T12:25:52.277Z,12.90
2017-09-22T12:28:20.568Z,13.20
2017-09-22T12:30:48.817Z,12.97
2017-09-22T12:33:17.596Z,12.87
2017-09-22T12:35:45.878Z,11.73
2017-09-22T12:38:14.134Z,11.53
2017-09-22T12:40:42.406Z,11.23
2017-09-22T12:43:10.662Z,11.73
2017-09-22T12:45:39.098Z,12.60
2017-09-22T12:48:07.566Z,19.90
2017-09-22T12:50:35.823Z,12.23
2017-09-22T12:53:04.081Z,17.50
2017-09-22T12:55:32.362Z,12.47
2017-09-22T12:58:00.994Z,13.97
2017-09-22T13:00:29.257Z,11.13
2017-09-22T13:02:57.528Z,13.90
2017-09-22T13:05:26.751Z,14.53
2017-09-22T13:07:55.014Z,14.30
2017-09-22T13:10:23.434Z,13.97
2017-09-22T13:12:55.891Z,11.97
2017-09-22T13:15:24.956Z,12.07
2017-09-22T13:17:53.246Z,15.77
2017-09-22T13:20:22.023Z,11.33
2017-09-22T13:22:50.397Z,14.30
2017-09-22T13:25:18.655Z,13.50
2017-09-22T13:27:46.930Z,11.60
2017-09-22T13:30:15.297Z,11.93
2017-09-22T13:32:43.547Z,11.07
2017-09-22T13:35:12.562Z,12.03
2017-09-22T13:37:40.839Z,11.50
2017-09-22T13:40:09.226Z,11.70
2017-09-22T13:42:37.464Z,11.73
2017-09-22T13:45:05.742Z,12.37
2017-09-22T13:47:34.758Z,10.37
2017-09-22T13:50:03.136Z,9.60
2017-09-22T13:52:32.267Z,9.37
2017-09-22T13:55:00.501Z,12.93
2017-09-22T13:57:29.506Z,9.57
2017-09-22T13:59:57.784Z,7.90
2017-09-22T14:02:26.526Z,8.50
2017-09-22T14:04:54.845Z,11.57
2017-09-22T14:07:23.315Z,9.43
2017-09-22T14:09:52.333Z,11.53
2017-09-22T14:12:20.850Z,11.70
2017-09-22T14:14:50.462Z,11.90
2017-09-22T14:17:18.710Z,12.27
2017-09-22T14:19:46.983Z,13.60
2017-09-22T14:22:15.477Z,11.30
2017-09-22T14:24:43.790Z,13.10
2017-09-22T14:27:12.054Z,12.47
2017-09-22T14:29:40.314Z,13.70
2017-09-22T14:32:08.582Z,16.83
2017-09-22T14:34:36.838Z,14.57
2017-09-22T14:37:05.556Z,14.70
2017-09-22T14:39:33.792Z,18.47
2017-09-22T14:42:02.046Z,14.33
2017-09-22T14:44:30.346Z,18.20
2017-09-22T14:46:58.672Z,19.57
2017-09-22T14:49:26.926Z,20.90
2017-09-22T14:51:55.377Z,16.87
2017-09-22T14:54:24.398Z,22.13
2017-09-22T14:56:52.659Z,22.27
2017-09-22T14:59:21.690Z,15.60
2017-09-22T15:01:49.944Z,17.30
2017-09-22T15:04:18.194Z,16.30
2017-09-22T15:06:47.258Z,14.83
2017-09-22T15:09:15.552Z,23.93
2017-09-22T15:11:43.932Z,16.07
2017-09-22T15:14:12.965Z,17.00
2017-09-22T15:16:43.626Z,15.40
2017-09-22T15:19:11.884Z,17.13
2017-09-22T15:21:40.291Z,19.33
2017-09-22T15:24:09.193Z,22.00
2017-09-22T15:26:37.619Z,19.20
2017-09-22T15:29:06.006Z,21.20
2017-09-22T15:31:34.291Z,23.67
2017-09-22T15:34:02.561Z,17.60
2017-09-22T15:36:30.833Z,18.80
2017-09-22T15:38:59.119Z,15.47
2017-09-22T15:41:27.385Z,23.53
2017-09-22T15:43:55.793Z,25.40
2017-09-22T15:46:24.048Z,18.40
2017-09-22T15:48:52.558Z,21.63
2017-09-22T15:51:23.598Z,25.63
2017-09-22T15:53:51.889Z,19.80
2017-09-22T15:56:20.262Z,17.53
2017-09-22T15:58:48.672Z,19.03
2017-09-22T16:01:17.948Z,23.93
2017-09-22T16:03:46.323Z,20.77
2017-09-22T16:06:19.399Z,20.40
2017-09-22T16:08:48.621Z,22.57
2017-09-22T16:11:16.940Z,19.80
2017-09-22T16:13:45.270Z,25.30
2017-09-22T16:16:13.510Z,35.73
2017-09-22T16:18:42.917Z,20.40
2017-09-22T16:21:12.401Z,22.27
2017-09-22T16:23:40.745Z,29.73
2017-09-22T16:26:09.217Z,18.77
2017-09-22T16:28:37.607Z,20.30
2017-09-22T16:31:05.894Z,24.77
2017-09-22T16:33:35.138Z,22.97
2017-09-22T16:36:03.577Z,22.63
2017-09-22T16:38:38.689Z,24.43
2017-09-22T16:41:06.978Z,29.80
2017-09-22T16:43:35.450Z,26.43
2017-09-22T16:46:03.826Z,21.23
2017-09-22T16:48:32.293Z,21.47
2017-09-22T16:51:00.546Z,22.67
2017-09-22T16:53:28.984Z,20.50
2017-09-22T16:55:58.362Z,22.27
2017-09-22T16:58:26.684Z,25.53
2017-09-22T17:00:55.026Z,21.10
2017-09-22T17:03:23.910Z,21.33
2017-09-22T17:05:55.836Z,21.67
2017-09-22T17:08:24.546Z,20.00
2017-09-22T17:10:55.004Z,21.23
2017-09-22T17:13:25.252Z,25.80
2017-09-22T17:15:54.571Z,26.70
2017-09-22T17:18:22.941Z,21.70
2017-09-22T17:20:53.351Z,21.37
2017-09-22T17:23:21.820Z,18.67
2017-09-22T17:25:50.469Z,16.80
2017-09-22T17:28:19.030Z,17.50
2017-09-22T17:30:47.437Z,16.80
2017-09-22T17:33:16.123Z,17.33
2017-09-22T17:35:44.412Z,18.40
2017-09-22T17:38:14.853Z,24.10
2017-09-22T17:40:45.094Z,23.50
2017-09-22T17:43:14.128Z,17.30
2017-09-22T17:45:42.454Z,20.03
2017-09-22T17:48:11.622Z,19.83
2017-09-22T17:50:39.875Z,19.60
2017-09-22T17:53:08.188Z,19.43
2017-09-22T17:55:37.498Z,23.30
2017-09-22T17:58:06.830Z,21.17
2017-09-22T18:00:35.199Z,17.13
2017-09-22T18:03:03.584Z,20.07
2017-09-22T18:05:35.614Z,25.67
2017-09-22T18:08:04.157Z,22.20
2017-09-22T18:10:32.394Z,25.73
2017-09-22T18:13:02.629Z,17.27
2017-09-22T18:15:31.926Z,22.80
2017-09-22T18:18:00.948Z,31.33
2017-09-22T18:20:29.310Z,26.40
2017-09-22T18:22:57.666Z,23.43
2017-09-22T18:25:26.704Z,28.40
2017-09-22T18:27:55.018Z,29.43
2017-09-22T18:30:24.080Z,23.80
2017-09-22T18:32:53.984Z,22.57
2017-09-22T18:35:23.242Z,17.60
2017-09-22T18:37:52.791Z,21.50
2017-09-22T18:40:21.522Z,19.00
2017-09-22T18:42:49.922Z,20.47
2017-09-22T18:45:22.334Z,27.97
2017-09-22T18:47:50.736Z,24.87
2017-09-22T18:50:19.163Z,24.20
2017-09-22T18:52:48.862Z,20.53
2017-09-22T18:55:17.339Z,17.50
2017-09-22T18:57:46.657Z,20.43
2017-09-22T19:00:16.914Z,18.90
2017-09-22T19:02:45.199Z,27.30
2017-09-22T19:05:17.627Z,16.80
2017-09-22T19:07:46.682Z,18.90
2017-09-22T19:10:15.046Z,16.03
2017-09-22T19:12:46.515Z,15.40
2017-09-22T19:15:14.995Z,17.70
2017-09-22T19:17:44.447Z,19.37
2017-09-22T19:20:13.654Z,24.17
2017-09-22T19:22:46.138Z,19.13
2017-09-22T19:25:14.605Z,20.87
2017-09-22T19:27:42.994Z,23.53
2017-09-22T19:30:17.965Z,19.20
2017-09-22T19:32:47.989Z,17.73
2017-09-22T19:35:16.380Z,17.97
2017-09-22T19:37:44.744Z,16.83
2017-09-22T19:40:13.970Z,15.60
2017-09-22T19:42:44.196Z,13.47
2017-09-22T19:45:13.334Z,20.90
2017-09-22T19:47:42.966Z,20.97
2017-09-22T19:50:11.242Z,14.73
2017-09-22T19:52:40.542Z,18.03
2017-09-22T19:55:08.842Z,13.60
2017-09-22T19:57:37.232Z,13.93
2017-09-22T20:00:05.623Z,17.20
2017-09-22T20:02:34.644Z,13.90
2017-09-22T20:05:02.991Z,17.67
2017-09-22T20:07:32.056Z,18.10
2017-09-22T20:10:00.491Z,23.30
2017-09-22T20:12:30.572Z,16.63
2017-09-22T20:14:59.034Z,15.17
2017-09-22T20:17:28.263Z,14.63
2017-09-22T20:19:58.510Z,22.47
2017-09-22T20:22:27.551Z,18.23
2017-09-22T20:24:55.838Z,19.90
2017-09-22T20:27:27.294Z,21.20
2017-09-22T20:29:56.055Z,18.30
2017-09-22T20:33:14.439Z,15.07
2017-09-22T20:35:42.886Z,15.50
2017-09-22T20:38:15.200Z,16.07
2017-09-22T20:43:19.319Z,17.13
2017-09-22T20:45:48.441Z,17.23
2017-09-22T20:48:17.923Z,27.23
2017-09-22T20:50:50.399Z,15.23
2017-09-22T20:53:18.692Z,16.90
2017-09-22T20:55:52.924Z,20.53
2017-09-22T20:58:24.351Z,15.40
2017-09-22T21:00:52.726Z,19.00
2017-09-22T21:03:21.802Z,21.67
2017-09-22T21:05:50.082Z,16.63
2017-09-22T21:08:20.309Z,20.70
2017-09-22T21:10:49.178Z,18.27
2017-09-22T21:13:17.425Z,19.43
2017-09-22T21:15:45.767Z,24.93
2017-09-22T21:18:15.238Z,14.70
2017-09-22T21:20:44.659Z,16.90
2017-09-22T21:23:13.034Z,18.83
2017-09-22T21:25:43.603Z,15.93
2017-09-22T21:28:15.023Z,23.70
2017-09-22T21:30:44.431Z,18.87
2017-09-22T21:33:12.687Z,15.70
2017-09-22T21:35:41.078Z,19.00
2017-09-22T21:38:09.478Z,17.57
2017-09-22T21:40:40.618Z,19.03
2017-09-22T21:43:13.623Z,20.77
2017-09-22T21:45:42.686Z,17.87
2017-09-22T21:48:11.047Z,19.00
2017-09-22T21:50:40.649Z,16.20
2017-09-22T21:53:08.942Z,22.40
2017-09-22T21:55:38.272Z,25.27
2017-09-22T21:58:08.540Z,16.00
2017-09-22T22:00:40.841Z,16.90
2017-09-22T22:03:14.819Z,22.83
2017-09-22T22:05:45.303Z,24.13
2017-09-22T22:08:13.750Z,17.03
2017-09-22T22:10:42.190Z,26.47
2017-09-22T22:13:10.474Z,23.00
2017-09-22T22:15:38.798Z,26.03
2017-09-22T22:18:07.527Z,18.83
2017-09-22T22:20:38.010Z,19.23
2017-09-22T22:23:06.395Z,19.37
2017-09-22T22:25:34.714Z,16.00
2017-09-22T22:28:03.003Z,20.70
2017-09-22T22:30:32.458Z,17.70
2017-09-22T22:33:00.945Z,19.20
2017-09-22T22:35:29.207Z,22.00
2017-09-22T22:37:57.777Z,28.10
2017-09-22T22:40:26.059Z,21.30
2017-09-22T22:42:54.317Z,21.10
2017-09-22T22:45:22.740Z,21.53
2017-09-22T22:47:51.782Z,19.77
2017-09-22T22:50:21.015Z,21.93
2017-09-22T22:52:49.290Z,21.00
2017-09-22T22:55:18.166Z,23.63
2017-09-22T22:57:46.469Z,24.20
2017-09-22T23:00:14.761Z,19.60
2017-09-22T23:02:43.413Z,27.83
2017-09-22T23:05:11.680Z,19.80
2017-09-22T23:07:39.930Z,17.63
2017-09-22T23:10:08.378Z,25.80
2017-09-22T23:12:37.408Z,19.17
2017-09-22T23:15:05.649Z,19.27
2017-09-22T23:17:34.878Z,16.90
2017-09-22T23:20:03.126Z,17.13
2017-09-22T23:22:32.149Z,18.53
2017-09-22T23:25:00.434Z,23.93
2017-09-22T23:27:29.781Z,17.53
2017-09-22T23:29:58.163Z,15.63
2017-09-22T23:32:26.589Z,18.47
2017-09-22T23:34:55.576Z,16.77
2017-09-22T23:37:23.905Z,20.53
2017-09-22T23:39:52.973Z,17.17
2017-09-22T23:42:25.275Z,16.27
2017-09-22T23:44:53.653Z,18.57
2017-09-22T23:47:22.062Z,18.07
2017-09-22T23:49:51.098Z,19.60
2017-09-22T23:52:19.413Z,18.30
2017-09-22T23:54:48.734Z,18.57
2017-09-22T23:57:16.994Z,19.93
2017-09-22T23:59:45.473Z,18.30
